Time;durP1;ratioP1;P1;durP2;ratioP2;P2;SDS_P1;SDS_P2;PMS_P1;PMS_P2;Temp;Humidity;BMP_temperature;BMP_pressure;BME280_temperature;BME280_humidity;BME280_pressure;Samples;Min_cycle;Max_cycle;Signal;HPM_P1;HPM_P2
2022/12/19 00:01:31;;;;;;;46.35;16.05;;;;;;;0.43;52.56;102574.44;4968159;28;98417;-72
2022/12/19 00:03:59;;;;;;;45.60;17.42;;;;;;;0.61;52.21;102568.97;4975538;28;98429;-71
2022/12/19 00:06:28;;;;;;;38.97;14.30;;;;;;;0.29;52.24;102558.34;4959579;28;96741;-70
2022/12/19 00:08:55;;;;;;;41.30;16.17;;;;;;;0.45;52.09;102557.16;4969566;28;97355;-72
2022/12/19 00:11:26;;;;;;;43.92;17.55;;;;;;;0.42;52.58;102550.97;4965759;28;98908;-70
2022/12/19 00:13:53;;;;;;;43.53;15.57;;;;;;;0.45;52.35;102544.16;4964638;28;98376;-72
2022/12/19 00:16:22;;;;;;;40.80;15.75;;;;;;;0.52;52.20;102540.06;4967017;28;97217;-72
2022/12/19 00:18:50;;;;;;;40.38;16.17;;;;;;;0.54;51.57;102546.16;4973553;28;98689;-73
2022/12/19 00:21:20;;;;;;;39.63;15.50;;;;;;;0.73;51.64;102538.16;4967740;28;97717;-72
2022/12/19 00:23:47;;;;;;;45.88;15.80;;;;;;;0.84;51.02;102542.00;4966382;28;102240;-74
2022/12/19 00:26:16;;;;;;;42.75;15.10;;;;;;;0.72;51.42;102562.44;4974744;28;97274;-73
2022/12/19 00:28:45;;;;;;;41.95;16.48;;;;;;;0.73;51.59;102551.16;4965108;28;97580;-72
2022/12/19 00:31:11;;;;;;;40.42;15.98;;;;;;;0.84;51.57;102552.41;4963675;28;97793;-73
2022/12/19 00:33:40;;;;;;;41.50;16.52;;;;;;;0.85;51.37;102545.50;4961024;28;97746;-72
2022/12/19 00:36:10;;;;;;;43.13;16.50;;;;;;;0.88;51.41;102541.25;4971071;28;97541;-72
2022/12/19 00:38:36;;;;;;;37.55;15.73;;;;;;;0.85;51.13;102538.56;4963619;28;96789;-72
2022/12/19 00:41:07;;;;;;;42.00;16.67;;;;;;;1.00;50.75;102544.25;4963753;28;98981;-71
2022/12/19 00:43:33;;;;;;;40.50;15.82;;;;;;;1.01;50.67;102548.63;4967160;28;100138;-72
2022/12/19 00:46:02;;;;;;;47.72;16.73;;;;;;;0.96;50.96;102526.78;4969364;28;96846;-72
2022/12/19 00:48:28;;;;;;;39.00;15.27;;;;;;;0.95;51.07;102526.72;4970541;28;96847;-72
2022/12/19 00:51:00;;;;;;;41.95;16.65;;;;;;;0.74;51.55;102529.50;4964393;28;98814;-72
2022/12/19 00:53:26;;;;;;;39.17;15.40;;;;;;;0.86;51.47;102522.09;4966556;28;98558;-73
2022/12/19 00:55:52;;;;;;;37.60;14.95;;;;;;;0.88;51.10;102517.84;4970766;28;96743;-72
2022/12/19 00:58:19;;;;;;;38.50;15.80;;;;;;;1.00;51.21;102510.41;4963373;28;96819;-72
2022/12/19 01:00:45;;;;;;;36.90;14.95;;;;;;;0.86;51.41;102519.50;4973450;28;99144;-72
2022/12/19 01:03:12;;;;;;;38.50;15.32;;;;;;;0.97;50.85;102512.94;4964162;28;98808;-73
2022/12/19 01:05:38;;;;;;;42.10;16.00;;;;;;;1.18;50.91;102505.75;4963437;28;96895;-72
2022/12/19 01:08:06;;;;;;;40.35;15.20;;;;;;;1.01;51.32;102503.47;4966075;28;96901;-72
2022/12/19 01:10:33;;;;;;;36.90;14.45;;;;;;;0.93;51.38;102490.22;4971522;28;98616;-72
2022/12/19 01:12:58;;;;;;;36.45;14.25;;;;;;;0.79;51.41;102481.97;4968057;28;98192;-75
2022/12/19 01:15:24;;;;;;;;;;;;;;;0.83;51.15;102475.16;4975847;28;96835;-72
2022/12/19 01:17:51;;;;;;;38.65;14.82;;;;;;;0.93;51.39;102464.19;4964618;28;96978;-73
2022/12/19 01:20:20;;;;;;;34.38;13.77;;;;;;;0.85;51.17;102460.50;4967053;28;99253;-71
2022/12/19 01:22:47;;;;;;;37.28;13.98;;;;;;;0.88;51.36;102459.69;4963394;28;98932;-73
2022/12/19 01:25:15;;;;;;;41.78;15.02;;;;;;;0.83;51.18;102454.34;4970302;28;96792;-72
2022/12/19 01:27:42;;;;;;;36.75;14.63;;;;;;;0.89;51.47;102446.72;4976815;28;98532;-72
2022/12/19 01:30:10;;;;;;;40.13;14.48;;;;;;;1.02;51.61;102446.28;4974254;28;98916;-72
2022/12/19 01:32:36;;;;;;;36.42;14.70;;;;;;;0.79;51.87;102449.88;4969243;28;99065;-72
2022/12/19 01:35:03;;;;;;;34.17;14.82;;;;;;;0.72;51.67;102438.38;4968335;28;98535;-71
2022/12/19 01:37:29;;;;;;;36.22;14.93;;;;;;;1.03;50.99;102424.59;4975502;28;96914;-72
2022/12/19 01:39:56;;;;;;;35.58;14.05;;;;;;;0.73;52.15;102411.53;4968585;28;99557;-72
2022/12/19 01:42:23;;;;;;;42.38;13.95;;;;;;;1.05;51.28;102407.28;4976124;28;98835;-71
2022/12/19 01:45:04;;;;;;;34.10;14.20;;;;;;;0.99;50.87;102399.31;4969962;28;97523;-72
2022/12/19 01:47:33;;;;;;;35.05;14.73;;;;;;;0.97;50.97;102411.41;4974464;28;96763;-72
2022/12/19 01:50:01;;;;;;;36.72;14.82;;;;;;;1.10;51.10;102413.53;4969914;28;98920;-72
2022/12/19 01:52:27;;;;;;;32.88;12.88;;;;;;;0.95;51.08;102399.19;4978429;28;99357;-72
2022/12/19 01:54:54;;;;;;;43.80;14.80;;;;;;;1.19;50.91;102395.56;4965415;28;97218;-71
2022/12/19 01:57:21;;;;;;;33.38;13.50;;;;;;;1.07;51.14;102394.31;4973544;28;97247;-72
2022/12/19 01:59:53;;;;;;;35.55;14.68;;;;;;;1.19;51.15;102392.06;4975007;28;100770;-72
2022/12/19 02:02:25;;;;;;;38.55;14.48;;;;;;;0.99;51.24;102375.88;4976710;28;99631;-72
2022/12/19 02:04:51;;;;;;;39.63;14.25;;;;;;;0.95;51.59;102379.25;4967488;28;97079;-72
2022/12/19 02:07:22;;;;;;;38.42;14.55;;;;;;;0.83;51.15;102375.38;4974219;28;97241;-71
2022/12/19 02:09:55;;;;;;;38.45;15.25;;;;;;;0.85;52.04;102379.81;4957938;28;99193;-72
2022/12/19 02:12:21;;;;;;;38.95;13.93;;;;;;;0.71;52.27;102369.00;4971215;28;98902;-72
2022/12/19 02:14:49;;;;;;;40.28;13.90;;;;;;;0.69;52.05;102381.06;4965804;28;98548;-73
2022/12/19 02:17:21;;;;;;;39.95;14.95;;;;;;;0.93;51.74;102372.22;4969561;28;96764;-72
2022/12/19 02:20:32;;;;;;;43.03;15.82;;;;;;;0.91;51.28;102374.78;4974258;28;100135;-72
2022/12/19 02:23:14;;;;;;;37.30;14.15;;;;;;;0.90;51.54;102360.00;4951604;28;99386;-73
2022/12/19 02:25:55;;;;;;;37.38;14.63;;;;;;;0.85;51.90;102360.72;4967476;28;96829;-71
2022/12/19 02:28:59;;;;;;;41.83;14.02;;;;;;;1.00;51.75;102346.41;4966832;28;96816;-71
2022/12/19 02:31:30;;;;;;;29.58;13.57;;;;;;;0.92;51.52;102341.84;4965570;28;99217;-71
2022/12/19 02:34:03;;;;;;;37.75;14.73;;;;;;;0.94;51.48;102335.81;4970611;28;97635;-71
2022/12/19 02:36:36;;;;;;;38.85;14.30;;;;;;;0.92;51.66;102344.44;4964002;28;96780;-71
2022/12/19 02:39:07;;;;;;;35.60;15.25;;;;;;;1.03;51.40;102341.31;4960417;28;96883;-71
2022/12/19 02:41:42;;;;;;;37.10;14.77;;;;;;;1.06;50.77;102335.28;4971948;28;98914;-71
2022/12/19 02:44:12;;;;;;;39.40;14.85;;;;;;;0.96;51.08;102328.94;4966390;28;97764;-72
2022/12/19 02:46:43;;;;;;;37.38;14.65;;;;;;;0.95;51.69;102339.31;4960462;28;97231;-72
2022/12/19 02:49:10;;;;;;;40.58;15.43;;;;;;;0.97;51.31;102345.44;4973703;28;97029;-72
2022/12/19 02:51:37;;;;;;;37.47;14.48;;;;;;;0.90;51.65;102338.31;4969620;28;99302;-72
2022/12/19 02:54:04;;;;;;;40.20;15.75;;;;;;;0.69;52.03;102343.75;4960056;28;98894;-71
2022/12/19 02:56:42;;;;;;;37.83;14.32;;;;;;;0.90;51.92;102338.31;4956497;28;99119;-71
2022/12/19 02:59:32;;;;;;;34.40;14.57;;;;;;;0.91;51.41;102338.34;4962794;28;96768;-72
2022/12/19 03:02:07;;;;;;;36.88;15.23;;;;;;;0.84;51.38;102339.00;4971609;28;97771;-71
2022/12/19 03:04:45;;;;;;;38.70;16.20;;;;;;;0.88;51.42;102325.25;4964173;28;99012;-72
2022/12/19 03:07:21;;;;;;;38.20;15.32;;;;;;;0.98;50.99;102327.28;4968540;28;97193;-70
2022/12/19 03:09:58;;;;;;;35.60;14.95;;;;;;;0.85;51.69;102321.69;4969617;28;98794;-70
2022/12/19 03:12:30;;;;;;;41.70;15.65;;;;;;;0.73;51.32;102320.47;4963850;28;99081;-72
2022/12/19 03:14:58;;;;;;;42.70;15.32;;;;;;;0.86;51.28;102318.22;4967894;28;99133;-72
2022/12/19 03:17:27;;;;;;;40.70;15.95;;;;;;;0.88;51.47;102319.16;4967264;28;96771;-71
2022/12/19 03:19:54;;;;;;;35.67;14.57;;;;;;;0.73;51.51;102323.06;4971133;28;96836;-71
2022/12/19 03:22:21;;;;;;;41.10;16.10;;;;;;;1.10;50.69;102322.41;4967932;28;98272;-72
2022/12/19 03:24:48;;;;;;;38.15;15.77;;;;;;;1.23;50.45;102328.84;4969680;28;99241;-72
2022/12/19 03:27:21;;;;;;;43.78;17.27;;;;;;;1.10;50.77;102324.13;4968861;28;97408;-70
2022/12/19 03:29:55;;;;;;;38.88;16.27;;;;;;;1.17;50.49;102326.97;4971173;28;96915;-71
2022/12/19 03:32:23;;;;;;;37.35;16.02;;;;;;;1.30;50.22;102327.28;4969913;28;98219;-71
2022/12/19 03:34:56;;;;;;;36.80;15.48;;;;;;;1.16;50.35;102314.78;4974209;28;98788;-71
2022/12/19 03:37:26;;;;;;;45.72;18.02;;;;;;;1.19;50.31;102312.25;4973020;28;96812;-72
2022/12/19 03:39:57;;;;;;;44.13;16.90;;;;;;;1.38;49.99;102310.16;4966162;28;96825;-73
2022/12/19 03:45:13;;;;;;;40.30;15.63;;;;;;;1.40;49.61;102319.75;4973469;28;97576;-71
2022/12/19 03:47:44;;;;;;;39.35;15.82;;;;;;;1.26;50.40;102313.28;4967310;28;97248;-71
2022/12/19 03:50:11;;;;;;;40.75;16.60;;;;;;;1.31;49.94;102318.66;4964081;28;96834;-72
2022/12/19 03:52:45;;;;;;;48.08;17.77;;;;;;;1.31;50.03;102316.94;4967072;28;98940;-71
2022/12/19 03:55:16;;;;;;;43.30;16.58;;;;;;;1.37;50.06;102316.22;4970335;28;100109;-72
2022/12/19 03:57:47;;;;;;;44.25;15.32;;;;;;;1.34;49.65;102316.09;4971174;28;97741;-72
2022/12/19 04:00:17;;;;;;;39.92;16.73;;;;;;;1.40;49.81;102311.06;4972099;28;97049;-71
2022/12/19 04:02:47;;;;;;;41.80;17.08;;;;;;;1.34;50.49;102308.28;4976960;28;101602;-72
2022/12/19 04:05:20;;;;;;;40.60;16.38;;;;;;;1.35;50.03;102308.34;4967415;28;97440;-71
2022/12/19 04:07:48;;;;;;;44.05;17.85;;;;;;;1.12;50.42;102309.41;4972152;28;96832;-72
2022/12/19 04:10:19;;;;;;;49.95;18.60;;;;;;;1.10;50.78;102304.19;4967427;28;96740;-72
2022/12/19 04:12:50;;;;;;;37.13;15.55;;;;;;;0.88;50.81;102304.41;4963151;28;100274;-72
2022/12/19 04:15:17;;;;;;;40.45;17.48;;;;;;;1.02;51.17;102297.88;4968621;28;97675;-71
2022/12/19 04:17:47;;;;;;;42.28;16.25;;;;;;;1.02;50.88;102297.88;4966688;28;98958;-71
2022/12/19 04:20:21;;;;;;;43.95;17.75;;;;;;;1.02;51.16;102291.78;4973578;28;96754;-72
2022/12/19 04:22:52;;;;;;;49.05;17.58;;;;;;;1.15;50.42;102299.09;4962751;28;99181;-71
2022/12/19 04:25:23;;;;;;;45.97;18.23;;;;;;;1.18;50.46;102307.88;4969207;28;100690;-72
2022/12/19 04:27:56;;;;;;;42.67;17.13;;;;;;;1.33;50.45;102303.91;4968455;28;96745;-73
2022/12/19 04:30:23;;;;;;;39.65;15.77;;;;;;;1.30;49.90;102309.06;4967630;28;97107;-71
2022/12/19 04:32:50;;;;;;;40.78;17.20;;;;;;;1.03;50.80;102309.19;4964044;28;98979;-73
2022/12/19 04:35:18;;;;;;;47.03;17.75;;;;;;;1.14;50.52;102308.63;4969616;28;97895;-72
2022/12/19 04:37:44;;;;;;;43.33;16.77;;;;;;;1.09;50.73;102307.63;4972909;28;96780;-71
2022/12/19 04:40:12;;;;;;;48.85;19.27;;;;;;;0.88;50.90;102304.41;4969766;28;97497;-72
2022/12/19 04:42:38;;;;;;;44.83;18.35;;;;;;;1.11;50.79;102305.06;4963444;28;99198;-73
2022/12/19 04:45:06;;;;;;;42.80;17.85;;;;;;;1.03;50.87;102298.78;4964761;28;99160;-72
2022/12/19 04:47:33;;;;;;;41.92;18.35;;;;;;;1.11;50.68;102297.28;4971742;28;96772;-71
2022/12/19 04:49:59;;;;;;;42.80;17.50;;;;;;;0.85;50.80;102303.47;4965818;28;96834;-71
2022/12/19 04:52:27;;;;;;;46.17;18.17;;;;;;;1.04;51.02;102297.94;4964529;28;100554;-71
2022/12/19 04:54:53;;;;;;;46.80;18.40;;;;;;;1.01;50.83;102285.69;4973616;28;99168;-70
2022/12/19 04:57:20;;;;;;;43.22;18.77;;;;;;;1.04;50.70;102280.59;4969907;28;96826;-72
2022/12/19 04:59:46;;;;;;;50.42;19.13;;;;;;;1.25;50.59;102271.59;4964356;28;97620;-73
2022/12/19 05:02:12;;;;;;;46.17;18.30;;;;;;;1.07;50.51;102267.66;4968985;28;99235;-71
2022/12/19 05:04:39;;;;;;;43.88;17.75;;;;;;;0.91;51.28;102278.50;4959434;28;98945;-71
2022/12/19 05:07:05;;;;;;;46.70;18.40;;;;;;;1.06;51.10;102275.41;4957944;28;96780;-71
2022/12/19 05:09:36;;;;;;;46.65;18.48;;;;;;;1.11;50.50;102277.31;4962093;28;96912;-72
2022/12/19 05:12:02;;;;;;;45.70;18.70;;;;;;;0.90;51.42;102266.31;4964657;28;100231;-71
2022/12/19 05:14:28;;;;;;;48.33;18.38;;;;;;;1.01;51.32;102264.88;4964973;28;99856;-72
2022/12/19 05:16:55;;;;;;;42.20;16.67;;;;;;;0.82;51.34;102265.22;4964616;28;96794;-72
2022/12/19 05:19:21;;;;;;;48.45;19.30;;;;;;;0.61;51.98;102268.06;4960788;28;97600;-72
2022/12/19 05:21:47;;;;;;;48.42;18.40;;;;;;;0.59;52.17;102261.94;4967044;28;98896;-71
2022/12/19 05:24:14;;;;;;;42.40;18.27;;;;;;;0.71;52.24;102270.13;4965399;28;100669;-72
2022/12/19 05:26:41;;;;;;;45.38;18.85;;;;;;;0.74;51.97;102266.69;4972385;28;97375;-72
2022/12/19 05:29:08;;;;;;;46.78;18.52;;;;;;;0.93;51.90;102271.59;4957551;28;98044;-72
2022/12/19 05:31:35;;;;;;;46.17;18.10;;;;;;;0.80;51.69;102269.47;4970623;28;98877;-73
2022/12/19 05:34:01;;;;;;;46.38;18.25;;;;;;;0.80;51.99;102256.47;4968528;28;101771;-73
2022/12/19 05:36:28;;;;;;;45.72;18.42;;;;;;;0.90;51.86;102255.91;4975014;28;97598;-72
2022/12/19 05:38:54;;;;;;;48.90;18.08;;;;;;;1.00;51.58;102255.31;4965435;28;96807;-72
2022/12/19 05:41:21;;;;;;;48.33;18.88;;;;;;;1.17;51.04;102254.06;4967682;28;98440;-72
2022/12/19 05:43:53;;;;;;;48.53;18.92;;;;;;;1.14;50.95;102256.56;4969414;28;99268;-71
2022/12/19 05:46:20;;;;;;;45.08;18.33;;;;;;;1.43;50.75;102248.63;4972266;28;96905;-72
2022/12/19 05:48:47;;;;;;;44.78;18.02;;;;;;;1.45;50.51;102241.72;4960473;28;96812;-72
2022/12/19 05:51:14;;;;;;;44.83;18.73;;;;;;;1.28;50.97;102243.03;4972410;28;98970;-72
2022/12/19 05:53:41;;;;;;;42.50;17.05;;;;;;;1.28;50.85;102240.41;4967599;28;97680;-72
2022/12/19 05:56:09;;;;;;;46.80;18.95;;;;;;;1.50;50.51;102240.13;4964716;28;96739;-71
2022/12/19 05:58:36;;;;;;;43.25;18.55;;;;;;;1.38;50.79;102232.03;4958473;28;97268;-73
2022/12/19 06:01:06;;;;;;;42.55;17.83;;;;;;;1.52;50.42;102233.22;4965824;28;99512;-74
2022/12/19 06:03:33;;;;;;;45.72;18.85;;;;;;;1.28;51.02;102223.06;4969629;28;99238;-70
2022/12/19 06:06:02;;;;;;;43.40;18.33;;;;;;;1.07;51.36;102223.41;4970924;28;96739;-71
2022/12/19 06:08:29;;;;;;;47.55;18.65;;;;;;;1.32;50.97;102224.91;4968820;28;96964;-72
2022/12/19 06:10:58;;;;;;;43.47;17.17;;;;;;;1.24;51.28;102228.19;4969196;28;99199;-72
2022/12/19 06:13:25;;;;;;;41.38;17.55;;;;;;;0.99;52.15;102224.91;4961533;28;98586;-72
2022/12/19 06:15:57;;;;;;;43.67;16.30;;;;;;;1.10;52.16;102207.88;4974065;28;96915;-72
2022/12/19 06:18:25;;;;;;;44.80;17.70;;;;;;;1.29;51.45;102200.53;4982044;28;96929;-72
2022/12/19 06:20:56;;;;;;;46.20;17.17;;;;;;;1.25;51.50;102196.94;4970408;28;99114;-73
2022/12/19 06:23:23;;;;;;;44.40;18.48;;;;;;;0.96;52.47;102188.41;4971619;28;99332;-71
2022/12/19 06:25:49;;;;;;;42.78;17.70;;;;;;;0.95;52.60;102186.63;4968208;28;97311;-72
2022/12/19 06:28:16;;;;;;;39.30;15.35;;;;;;;1.11;52.56;102187.94;4971412;28;96807;-71
2022/12/19 06:30:42;;;;;;;45.88;16.02;;;;;;;1.10;52.36;102187.03;4974056;28;99229;-72
2022/12/19 06:33:08;;;;;;;44.35;18.73;;;;;;;1.05;52.23;102179.97;4971896;28;99229;-71
2022/12/19 06:35:36;;;;;;;42.38;16.38;;;;;;;1.14;52.37;102182.78;4976447;28;97006;-72
2022/12/19 06:38:03;;;;;;;42.33;17.02;;;;;;;1.22;52.04;102182.97;4974231;28;97223;-72
2022/12/19 06:43:34;;;;;;;40.72;18.02;;;;;;;1.30;51.71;102178.84;4892350;28;97356;-73
2022/12/19 06:46:01;;;;;;;46.22;18.60;;;;;;;1.26;52.16;102182.19;4952314;28;96951;-72
2022/12/19 06:48:27;;;;;;;40.35;17.02;;;;;;;1.30;51.99;102182.34;4976689;28;96739;-72
2022/12/19 06:51:13;;;;;;;40.15;16.50;;;;;;;1.43;51.82;102183.53;4960718;28;99215;-73
2022/12/19 06:53:39;;;;;;;39.58;17.15;;;;;;;1.43;51.52;102179.19;4974304;28;100460;-71
2022/12/19 06:56:07;;;;;;;44.63;17.58;;;;;;;1.50;51.80;102190.66;4965017;28;96962;-72
2022/12/19 06:58:34;;;;;;;40.67;17.77;;;;;;;1.55;51.50;102186.41;4968726;28;97388;-72
2022/12/19 07:01:00;;;;;;;41.67;16.40;;;;;;;1.49;51.40;102208.00;4968034;28;98928;-73
2022/12/19 07:03:31;;;;;;;42.83;16.77;;;;;;;1.49;51.77;102207.13;4970974;28;99483;-73
2022/12/19 07:05:59;;;;;;;39.17;14.80;;;;;;;1.64;51.22;102212.72;4972819;28;99046;-71
2022/12/19 07:08:29;;;;;;;44.60;16.38;;;;;;;1.46;51.22;102205.31;4964306;28;96925;-71
2022/12/19 07:10:56;;;;;;;41.03;17.33;;;;;;;1.69;51.12;102195.44;4972029;28;100549;-73
2022/12/19 07:13:22;;;;;;;41.80;16.75;;;;;;;1.70;51.11;102193.72;4963993;28;98928;-73
2022/12/19 07:15:50;;;;;;;36.83;16.38;;;;;;;1.73;51.39;102189.44;4960450;28;97367;-72
2022/12/19 07:18:16;;;;;;;41.03;16.52;;;;;;;1.66;50.64;102190.16;4964474;28;98336;-72
2022/12/19 07:20:43;;;;;;;37.78;15.35;;;;;;;1.75;50.97;102185.16;4967189;28;99183;-71
2022/12/19 07:23:25;;;;;;;34.08;13.95;;;;;;;1.76;50.65;102184.31;4964283;28;99594;-72
2022/12/19 07:25:52;;;;;;;36.78;16.83;;;;;;;1.89;50.39;102177.66;4966470;28;97276;-71
2022/12/19 07:28:19;;;;;;;41.15;16.52;;;;;;;1.99;50.28;102177.00;4967818;28;96868;-73
2022/12/19 07:30:46;;;;;;;40.70;16.30;;;;;;;1.87;50.44;102195.88;4963244;28;101239;-73
2022/12/19 07:33:12;;;;;;;42.50;16.95;;;;;;;1.95;50.12;102186.50;4968923;28;97578;-72
2022/12/19 07:35:39;;;;;;;39.67;16.60;;;;;;;2.09;49.99;102180.72;4965384;28;97421;-72
2022/12/19 07:38:07;;;;;;;40.55;14.43;;;;;;;1.87;50.55;102177.63;4965052;28;97697;-72
2022/12/19 07:40:35;;;;;;;36.53;15.63;;;;;;;1.78;50.58;102184.34;4967134;28;99096;-72
2022/12/19 07:43:02;;;;;;;40.40;16.45;;;;;;;1.86;50.56;102174.97;4967116;28;99191;-73
2022/12/19 07:45:29;;;;;;;40.88;17.38;;;;;;;1.99;50.19;102180.50;4969173;28;96714;-73
2022/12/19 07:48:00;;;;;;;38.97;16.48;;;;;;;2.05;50.25;102182.34;4968427;28;97433;-71
2022/12/19 07:50:26;;;;;;;37.58;14.98;;;;;;;2.16;49.82;102188.72;4965419;28;100520;-72
2022/12/19 07:52:53;;;;;;;41.67;16.65;;;;;;;2.20;49.52;102174.88;4965602;28;99189;-72
2022/12/19 07:55:20;;;;;;;40.05;15.55;;;;;;;2.22;49.79;102175.78;4963724;28;96801;-72
2022/12/19 07:57:47;;;;;;;36.45;14.35;;;;;;;2.36;49.10;102169.09;4962696;28;97209;-73
2022/12/19 08:00:15;;;;;;;40.13;15.70;;;;;;;2.12;50.08;102170.34;4960792;28;99323;-72
2022/12/19 08:02:41;;;;;;;40.22;16.23;;;;;;;2.33;49.54;102176.00;4967747;28;97557;-73
2022/12/19 08:05:08;;;;;;;41.33;16.15;;;;;;;2.27;49.61;102176.75;4969164;28;96879;-73
2022/12/19 08:07:35;;;;;;;44.25;16.13;;;;;;;2.42;49.11;102164.91;4961574;28;97192;-73
2022/12/19 08:10:01;;;;;;;40.45;15.60;;;;;;;2.30;49.41;102160.28;4960436;28;99319;-75
2022/12/19 08:12:28;;;;;;;35.20;14.20;;;;;;;2.29;49.30;102153.34;4967176;28;101951;-73
2022/12/19 08:15:01;;;;;;;39.30;16.15;;;;;;;2.29;49.76;102146.38;4972053;28;99783;-73
2022/12/19 08:17:28;;;;;;;35.92;15.15;;;;;;;2.31;49.51;102151.63;4969746;28;97424;-73
2022/12/19 08:19:54;;;;;;;38.83;15.40;;;;;;;2.39;49.22;102158.75;4971292;28;101587;-72
2022/12/19 08:22:21;;;;;;;40.83;17.13;;;;;;;2.48;49.19;102145.03;4967466;28;97774;-73
2022/12/19 08:24:48;;;;;;;37.53;16.00;;;;;;;2.51;49.28;102144.19;4966951;28;96776;-73
2022/12/19 08:27:15;;;;;;;39.03;15.30;;;;;;;2.58;49.14;102136.50;4961233;28;97049;-73
2022/12/19 08:29:42;;;;;;;37.17;16.17;;;;;;;2.54;48.92;102141.66;4963251;28;98075;-73
2022/12/19 08:32:10;;;;;;;41.60;15.93;;;;;;;2.50;49.08;102150.25;4970458;28;97092;-71
2022/12/19 08:34:36;;;;;;;36.90;14.38;;;;;;;2.60;49.10;102140.03;4968743;28;99163;-73
2022/12/19 08:37:03;;;;;;;38.65;15.35;;;;;;;2.59;48.90;102158.25;4970020;28;98855;-72
2022/12/19 08:39:29;;;;;;;38.17;14.73;;;;;;;2.76;48.47;102154.22;4961078;28;97802;-74
2022/12/19 08:41:55;;;;;;;40.50;15.23;;;;;;;2.74;48.51;102150.75;4965768;28;99285;-72
2022/12/19 08:44:22;;;;;;;39.17;15.40;;;;;;;2.75;48.85;102139.44;4971039;28;96747;-72
2022/12/19 08:46:48;;;;;;;37.65;15.02;;;;;;;2.78;48.77;102129.03;4963148;28;98316;-74
2022/12/19 08:49:17;;;;;;;40.30;14.50;;;;;;;2.80;48.58;102133.47;4957669;28;99943;-73
2022/12/19 08:51:43;;;;;;;35.08;12.63;;;;;;;2.63;48.81;102121.81;4962754;28;98954;-73
2022/12/19 08:54:11;;;;;;;36.10;14.73;;;;;;;3.09;48.03;102117.41;4962989;28;97588;-74
2022/12/19 08:56:37;;;;;;;37.45;15.02;;;;;;;2.94;47.83;102109.31;4962270;28;97294;-74
2022/12/19 08:59:05;;;;;;;34.70;14.70;;;;;;;3.24;47.94;102101.09;4962992;28;98831;-74
2022/12/19 09:01:31;;;;;;;49.15;16.08;;;;;;;3.05;47.51;102108.66;4963898;28;98853;-73
2022/12/19 09:03:59;;;;;;;38.97;16.77;;;;;;;3.02;47.80;102094.69;4955960;28;98321;-72
2022/12/19 09:06:26;;;;;;;36.75;14.07;;;;;;;3.16;47.61;102095.75;4964861;28;97976;-73
2022/12/19 09:08:53;;;;;;;36.55;14.63;;;;;;;3.24;47.54;102091.53;4962134;28;99902;-75
2022/12/19 09:11:20;;;;;;;38.35;15.65;;;;;;;2.91;48.22;102093.59;4966818;28;100778;-73
2022/12/19 09:13:48;;;;;;;39.80;14.82;;;;;;;2.97;48.57;102080.63;4969561;28;97494;-74
2022/12/19 09:16:18;;;;;;;40.63;14.77;;;;;;;3.24;48.00;102081.09;4969628;28;97267;-74
2022/12/19 09:18:46;;;;;;;39.63;16.17;;;;;;;3.28;47.98;102067.25;4963629;28;99712;-73
2022/12/19 09:21:12;;;;;;;38.75;15.75;;;;;;;3.19;47.82;102067.09;4963976;28;98889;-74
2022/12/19 09:23:41;;;;;;;35.30;15.13;;;;;;;3.17;47.99;102060.94;4971252;28;97545;-73
2022/12/19 09:26:09;;;;;;;41.05;15.50;;;;;;;3.29;47.45;102065.47;4967325;28;101732;-75
2022/12/19 09:28:37;;;;;;;46.92;16.90;;;;;;;3.35;47.98;102053.38;4967239;28;98944;-74
2022/12/19 09:31:06;;;;;;;39.50;15.30;;;;;;;3.40;47.99;102058.69;4960482;28;98888;-74
2022/12/19 09:33:34;;;;;;;34.10;14.38;;;;;;;3.49;47.29;102045.75;4965108;28;97660;-74
2022/12/19 09:36:01;;;;;;;38.38;15.32;;;;;;;3.25;47.85;102053.25;4965824;28;97932;-74
2022/12/19 09:38:29;;;;;;;40.90;15.95;;;;;;;3.38;47.44;102048.22;4967141;28;98192;-74
2022/12/19 09:41:17;;;;;;;38.60;15.82;;;;;;;3.45;47.27;102042.22;4967592;28;98807;-73
2022/12/19 09:43:57;;;;;;;40.22;15.43;;;;;;;3.68;47.28;102032.06;4965462;28;96947;-72
2022/12/19 09:46:33;;;;;;;36.80;14.30;;;;;;;3.83;46.68;102032.28;4969285;28;96840;-73
2022/12/19 09:49:01;;;;;;;38.45;14.32;;;;;;;3.66;46.60;102032.91;4960640;28;98058;-74
2022/12/19 09:51:34;;;;;;;39.08;16.23;;;;;;;3.96;46.13;102022.84;4965025;28;99231;-73
2022/12/19 09:54:06;;;;;;;37.63;15.32;;;;;;;3.87;46.34;102022.75;4967919;28;98104;-72
2022/12/19 09:56:38;;;;;;;40.15;15.25;;;;;;;3.89;46.13;102024.50;4965123;28;97220;-74
2022/12/19 09:59:13;;;;;;;36.92;14.32;;;;;;;3.78;46.42;102017.38;4959906;28;96740;-73
2022/12/19 10:01:55;;;;;;;38.47;15.52;;;;;;;4.07;46.27;102013.34;4968661;28;98020;-74
2022/12/19 10:04:25;;;;;;;37.28;14.73;;;;;;;4.04;45.65;102002.00;4965800;28;96843;-72
2022/12/19 10:06:52;;;;;;;32.08;14.07;;;;;;;4.07;46.31;101992.44;4967764;28;97688;-74
2022/12/19 10:09:20;;;;;;;36.15;15.02;;;;;;;4.17;45.84;101983.84;4968164;28;99724;-73
2022/12/19 10:12:01;;;;;;;37.25;15.13;;;;;;;4.56;45.09;101982.47;4960874;28;100535;-73
2022/12/19 10:14:36;;;;;;;37.50;15.43;;;;;;;4.67;44.62;101996.50;4968863;28;98587;-72
2022/12/19 10:17:12;;;;;;;34.67;13.27;;;;;;;4.31;44.92;101986.59;4966990;28;98009;-73
2022/12/19 10:19:51;;;;;;;41.33;15.73;;;;;;;4.51;45.09;101985.03;4964361;28;99260;-73
2022/12/19 10:22:27;;;;;;;39.63;15.55;;;;;;;4.52;44.58;101980.69;4967038;28;98810;-73
2022/12/19 10:25:13;;;;;;;35.05;15.75;;;;;;;4.32;45.38;101984.00;4967770;28;96843;-73
2022/12/19 10:27:49;;;;;;;38.57;15.57;;;;;;;4.60;44.92;101969.41;4964327;28;96981;-73
2022/12/19 10:30:19;;;;;;;37.38;14.88;;;;;;;4.55;44.51;101962.38;4967376;28;99103;-72
2022/12/19 10:33:02;;;;;;;56.10;24.17;;;;;;;4.70;44.64;101959.88;4970413;28;99620;-73
2022/12/19 10:35:34;;;;;;;36.15;14.57;;;;;;;4.44;45.01;101951.81;4959773;28;97544;-72
2022/12/19 10:38:13;;;;;;;36.67;14.43;;;;;;;4.69;44.89;101953.78;4966442;28;97975;-72
2022/12/19 10:40:46;;;;;;;35.80;15.18;;;;;;;4.86;44.87;101950.41;4963156;28;99383;-73
2022/12/19 10:43:22;;;;;;;37.17;14.30;;;;;;;4.94;44.47;101946.97;4961379;28;102144;-71
2022/12/19 10:45:53;;;;;;;39.65;15.32;;;;;;;4.85;44.77;101936.44;4970958;28;97155;-73
2022/12/19 10:48:22;;;;;;;37.90;14.93;;;;;;;4.84;44.63;101932.06;4975076;28;96732;-73
2022/12/19 10:50:49;;;;;;;38.45;14.88;;;;;;;5.24;44.21;101922.69;4970961;28;99332;-72
2022/12/19 10:53:16;;;;;;;32.42;13.15;;;;;;;5.30;44.11;101921.84;4967994;28;98891;-73
2022/12/19 10:55:45;;;;;;;35.00;14.20;;;;;;;5.42;43.82;101917.53;4967449;28;96731;-72
2022/12/19 10:58:22;;;;;;;36.00;15.38;;;;;;;5.19;44.42;101920.03;4964727;28;99468;-72
2022/12/19 11:01:03;;;;;;;37.47;14.52;;;;;;;5.25;44.27;101907.84;4961197;28;99241;-73
2022/12/19 11:03:30;;;;;;;33.25;13.55;;;;;;;4.90;44.88;101905.91;4959796;28;99236;-73
2022/12/19 11:05:57;;;;;;;37.13;14.77;;;;;;;5.26;44.75;101899.97;4967863;28;98048;-72
2022/12/19 11:08:26;;;;;;;33.15;14.77;;;;;;;5.36;44.58;101899.16;4957725;28;96918;-72
2022/12/19 11:10:54;;;;;;;37.38;14.98;;;;;;;5.20;44.68;101892.09;4962397;28;99255;-71
2022/12/19 11:13:26;;;;;;;35.60;14.27;;;;;;;5.19;44.93;101879.84;4962443;28;98772;-73
2022/12/19 11:15:54;;;;;;;32.97;12.85;;;;;;;4.92;45.44;101871.88;4962049;28;97864;-72
2022/12/19 11:18:21;;;;;;;37.95;14.90;;;;;;;5.03;45.91;101873.69;4960694;28;98876;-73
2022/12/19 11:20:56;;;;;;;35.97;15.23;;;;;;;5.40;45.72;101869.47;4967019;28;103603;-73
2022/12/19 11:23:26;;;;;;;34.75;14.70;;;;;;;5.18;46.58;101873.75;4958756;28;99699;-73
2022/12/19 11:25:55;;;;;;;40.17;15.70;;;;;;;5.27;47.11;101869.41;4962372;28;97679;-74
2022/12/19 11:28:26;;;;;;;32.38;13.32;;;;;;;5.48;46.77;101859.00;4965238;28;96970;-73
2022/12/19 11:30:58;;;;;;;39.03;16.75;;;;;;;5.36;47.74;101853.72;4969479;28;99786;-72
2022/12/19 11:33:26;;;;;;;30.45;13.45;;;;;;;5.45;48.09;101862.47;4968346;28;96768;-73